createdAt,value
2022-11-29T00:00:56.653Z,97.68
2022-11-29T00:03:23.019Z,97.74
2022-11-29T00:05:49.491Z,98.01
2022-11-29T00:08:15.815Z,97.96
2022-11-29T00:10:42.200Z,98.00
2022-11-29T00:13:08.500Z,98.02
2022-11-29T00:15:39.490Z,98.27
2022-11-29T00:18:07.027Z,98.08
2022-11-29T00:20:34.736Z,97.70
2022-11-29T00:23:01.227Z,97.36
2022-11-29T00:25:27.883Z,97.56
2022-11-29T00:27:54.192Z,97.53
2022-11-29T00:30:20.906Z,97.49
2022-11-29T00:32:47.506Z,97.35
2022-11-29T00:35:14.282Z,97.19
2022-11-29T00:37:40.647Z,97.37
2022-11-29T00:40:07.686Z,97.46
2022-11-29T00:42:34.026Z,97.75
2022-11-29T00:45:00.355Z,98.04
2022-11-29T00:47:26.695Z,98.27
2022-11-29T00:49:53.008Z,98.08
2022-11-29T00:52:19.331Z,98.15
2022-11-29T00:54:46.038Z,97.78
2022-11-29T00:57:12.489Z,97.78
2022-11-29T00:59:38.786Z,97.87
2022-11-29T01:02:05.235Z,97.76
2022-11-29T01:04:31.606Z,97.25
2022-11-29T01:06:57.944Z,97.30
2022-11-29T01:09:24.254Z,97.13
2022-11-29T01:11:50.617Z,97.17
2022-11-29T01:14:16.921Z,97.43
2022-11-29T01:16:43.313Z,97.42
2022-11-29T01:19:09.694Z,97.50
2022-11-29T01:21:36.031Z,97.64
2022-11-29T01:24:02.408Z,97.54
2022-11-29T01:26:30.688Z,97.92
2022-11-29T01:28:58.641Z,97.93
2022-11-29T01:31:28.723Z,98.20
2022-11-29T01:33:56.742Z,98.10
2022-11-29T01:36:24.176Z,98.25
2022-11-29T01:38:51.250Z,98.10
2022-11-29T01:41:22.774Z,97.77
2022-11-29T01:44:06.014Z,98.01
2022-11-29T01:46:35.561Z,97.92
2022-11-29T01:49:08.140Z,98.52
2022-11-29T01:51:37.542Z,98.36
2022-11-29T01:54:05.720Z,98.10
2022-11-29T01:56:33.893Z,98.23
2022-11-29T01:59:04.142Z,98.42
2022-11-29T02:01:31.234Z,98.60
2022-11-29T02:03:59.030Z,99.08
2022-11-29T02:06:25.806Z,99.15
2022-11-29T02:08:52.190Z,99.14
2022-11-29T02:11:24.447Z,98.78
2022-11-29T02:14:02.025Z,98.25
2022-11-29T02:16:56.249Z,98.12
2022-11-29T02:19:47.918Z,98.32
2022-11-29T02:22:31.149Z,98.63
2022-11-29T02:25:23.244Z,98.87
2022-11-29T02:28:14.169Z,98.93
2022-11-29T02:30:52.593Z,98.49
2022-11-29T02:33:37.920Z,97.97
2022-11-29T02:36:23.671Z,97.54
2022-11-29T02:39:08.078Z,97.71
2022-11-29T02:41:47.078Z,97.88
2022-11-29T02:44:16.072Z,98.13
2022-11-29T02:47:15.122Z,98.53
2022-11-29T02:50:11.665Z,98.93
2022-11-29T02:53:02.282Z,99.06
2022-11-29T02:55:28.537Z,99.26
2022-11-29T02:58:13.590Z,99.16
2022-11-29T03:00:50.276Z,99.44
2022-11-29T03:03:46.297Z,99.22
2022-11-29T03:06:23.303Z,99.59
2022-11-29T03:09:05.444Z,99.51
2022-11-29T03:11:45.513Z,99.26
2022-11-29T03:14:33.229Z,98.96
2022-11-29T03:17:31.254Z,98.51
2022-11-29T03:20:19.385Z,98.71
2022-11-29T03:22:52.011Z,98.49
2022-11-29T03:25:38.698Z,98.23
2022-11-29T03:28:13.428Z,97.92
2022-11-29T03:30:48.835Z,97.68
2022-11-29T03:33:44.930Z,97.61
2022-11-29T03:36:39.952Z,97.59
2022-11-29T03:39:11.025Z,97.92
2022-11-29T03:41:48.317Z,98.03
2022-11-29T03:44:31.640Z,97.91
2022-11-29T03:47:13.069Z,97.99
2022-11-29T03:49:48.219Z,98.14
2022-11-29T03:52:23.712Z,98.11
2022-11-29T03:55:22.039Z,97.92
2022-11-29T03:58:00.260Z,97.70
2022-11-29T04:00:34.089Z,97.71
2022-11-29T04:03:15.616Z,98.01
2022-11-29T04:05:54.162Z,97.97
2022-11-29T04:08:48.406Z,98.10
2022-11-29T04:11:44.987Z,98.07
2022-11-29T04:14:14.017Z,97.60
2022-11-29T04:17:02.402Z,97.59
2022-11-29T04:19:59.017Z,97.90
2022-11-29T04:22:58.316Z,98.38
2022-11-29T04:25:52.434Z,98.41
2022-11-29T04:28:46.519Z,98.76
2022-11-29T04:31:31.467Z,98.82
2022-11-29T04:34:25.536Z,98.58
2022-11-29T04:37:46.212Z,98.72
2022-11-29T04:40:26.134Z,98.96
2022-11-29T04:43:17.628Z,98.86
2022-11-29T04:46:00.722Z,99.03
2022-11-29T04:48:33.009Z,98.76
2022-11-29T04:51:10.114Z,98.83
2022-11-29T04:53:51.814Z,98.72
2022-11-29T04:56:44.646Z,98.56
2022-11-29T04:59:43.013Z,98.53
2022-11-29T05:02:32.597Z,98.61
2022-11-29T05:05:04.209Z,98.37
2022-11-29T05:07:49.553Z,98.64
2022-11-29T05:10:36.172Z,98.99
2022-11-29T05:13:24.986Z,99.29
2022-11-29T05:16:00.521Z,99.71
2022-11-29T05:18:44.837Z,99.80
2022-11-29T05:21:16.674Z,99.76
2022-11-29T05:24:09.480Z,99.57
2022-11-29T05:26:49.057Z,99.42
2022-11-29T05:29:29.533Z,99.66
2022-11-29T05:32:05.912Z,100.00
2022-11-29T05:34:50.353Z,99.92
2022-11-29T05:37:31.344Z,99.90
2022-11-29T05:40:15.672Z,99.69
2022-11-29T05:43:19.584Z,99.39
2022-11-29T05:46:03.137Z,99.30
2022-11-29T05:48:53.767Z,99.78
2022-11-29T05:51:30.682Z,99.79
2022-11-29T05:54:54.096Z,99.95
2022-11-29T05:57:43.763Z,99.94
2022-11-29T06:00:12.966Z,100.00
2022-11-29T06:03:01.499Z,100.00
2022-11-29T06:05:48.181Z,100.00
2022-11-29T06:08:48.135Z,100.00
2022-11-29T06:11:24.621Z,100.00
2022-11-29T06:14:14.161Z,100.00
2022-11-29T06:17:18.030Z,99.58
2022-11-29T06:19:53.276Z,99.05
2022-11-29T06:22:44.099Z,98.89
2022-11-29T06:25:22.975Z,99.12
2022-11-29T06:28:17.477Z,99.28
2022-11-29T06:30:59.766Z,99.32
2022-11-29T06:33:35.201Z,99.69
2022-11-29T06:36:22.946Z,99.89
2022-11-29T06:38:49.469Z,100.00
2022-11-29T06:41:22.623Z,100.00
2022-11-29T06:43:50.191Z,100.00
2022-11-29T06:46:37.949Z,100.00
2022-11-29T06:49:14.094Z,100.00
2022-11-29T06:52:17.761Z,100.00
2022-11-29T06:54:47.171Z,100.00
2022-11-29T06:57:23.786Z,99.94
2022-11-29T07:00:17.818Z,99.62
2022-11-29T07:03:08.940Z,99.56
2022-11-29T07:05:35.876Z,99.54
2022-11-29T07:08:29.921Z,99.32
2022-11-29T07:10:56.597Z,99.72
2022-11-29T07:13:23.280Z,99.57
2022-11-29T07:16:01.242Z,99.62
2022-11-29T07:18:51.604Z,99.69
2022-11-29T07:21:48.253Z,99.59
2022-11-29T07:24:33.594Z,99.64
2022-11-29T07:27:20.092Z,99.52
2022-11-29T07:30:14.430Z,99.58
2022-11-29T07:33:00.604Z,99.41
2022-11-29T07:35:48.298Z,99.50
2022-11-29T07:38:47.012Z,99.51
2022-11-29T07:41:39.177Z,99.42
2022-11-29T07:44:18.463Z,99.42
2022-11-29T07:46:44.833Z,99.35
2022-11-29T07:49:11.205Z,99.17
2022-11-29T07:51:37.640Z,99.03
2022-11-29T07:54:04.368Z,99.03
2022-11-29T07:56:30.727Z,98.88
2022-11-29T07:58:57.099Z,99.13
2022-11-29T08:01:23.572Z,99.33
2022-11-29T08:03:50.029Z,99.55
2022-11-29T08:06:16.348Z,99.58
2022-11-29T08:08:44.302Z,99.40
2022-11-29T08:11:14.082Z,99.39
2022-11-29T08:13:40.382Z,99.51
2022-11-29T08:16:07.069Z,99.23
2022-11-29T08:18:33.419Z,99.61
2022-11-29T08:21:05.593Z,99.10
2022-11-29T08:23:31.913Z,98.96
2022-11-29T08:26:04.370Z,98.75
2022-11-29T08:28:30.669Z,98.81
2022-11-29T08:31:02.219Z,98.74
2022-11-29T08:33:29.236Z,98.52
2022-11-29T08:35:56.226Z,98.17
2022-11-29T08:38:22.773Z,97.77
2022-11-29T08:40:49.109Z,97.70
2022-11-29T08:43:15.414Z,97.14
2022-11-29T08:45:41.771Z,97.25
2022-11-29T08:48:08.124Z,97.37
2022-11-29T08:50:34.421Z,96.95
2022-11-29T08:53:00.751Z,97.23
2022-11-29T08:55:31.122Z,97.13
2022-11-29T08:58:03.972Z,96.85
2022-11-29T09:00:31.265Z,97.16
2022-11-29T09:02:57.634Z,97.06
2022-11-29T09:05:24.061Z,96.93
2022-11-29T09:07:50.476Z,97.06
2022-11-29T09:10:16.898Z,97.05
2022-11-29T09:12:43.282Z,97.16
2022-11-29T09:15:10.335Z,96.49
2022-11-29T09:17:36.731Z,95.92
2022-11-29T09:20:04.113Z,95.95
2022-11-29T09:22:31.217Z,95.99
2022-11-29T09:24:57.523Z,95.40
2022-11-29T09:27:23.871Z,95.17
2022-11-29T09:29:50.173Z,95.48
2022-11-29T09:32:16.502Z,95.68
2022-11-29T09:34:42.915Z,95.91
2022-11-29T09:37:09.501Z,95.92
2022-11-29T09:39:35.814Z,96.01
2022-11-29T09:42:39.566Z,95.71
2022-11-29T09:45:19.313Z,95.63
2022-11-29T09:48:24.547Z,95.82
2022-11-29T09:50:53.898Z,95.91
2022-11-29T09:53:49.429Z,96.14
2022-11-29T09:56:24.073Z,96.14
2022-11-29T09:58:59.006Z,96.30
2022-11-29T10:01:28.340Z,96.56
2022-11-29T10:04:00.239Z,96.57
2022-11-29T10:06:31.377Z,96.37
2022-11-29T10:09:16.926Z,95.66
2022-11-29T10:12:03.181Z,95.91
2022-11-29T10:14:42.717Z,96.32
2022-11-29T10:17:38.320Z,95.95
2022-11-29T10:20:18.800Z,95.68
2022-11-29T10:22:54.544Z,95.50
2022-11-29T10:25:23.314Z,95.79
2022-11-29T10:27:49.804Z,95.57
2022-11-29T10:30:17.050Z,95.42
2022-11-29T10:32:46.463Z,94.95
2022-11-29T10:35:15.789Z,94.92
2022-11-29T10:37:43.919Z,95.06
2022-11-29T10:40:25.115Z,94.79
2022-11-29T10:42:52.214Z,95.19
2022-11-29T10:45:36.730Z,94.51
2022-11-29T10:48:11.259Z,93.95
2022-11-29T10:50:41.122Z,93.76
2022-11-29T10:53:11.119Z,93.60
2022-11-29T10:55:43.227Z,93.28
2022-11-29T10:58:16.656Z,93.81
2022-11-29T11:00:51.827Z,94.17
2022-11-29T11:03:29.070Z,94.26
2022-11-29T11:06:11.360Z,94.30
2022-11-29T11:08:41.162Z,93.90
2022-11-29T11:11:08.408Z,94.20
2022-11-29T11:13:36.464Z,94.40
2022-11-29T11:16:18.406Z,94.44
2022-11-29T11:18:46.952Z,94.61
2022-11-29T11:21:17.986Z,94.80
2022-11-29T11:23:59.785Z,94.88
2022-11-29T11:26:27.501Z,94.99
2022-11-29T11:28:59.838Z,95.30
2022-11-29T11:31:30.602Z,95.11
2022-11-29T11:33:57.466Z,95.33
2022-11-29T11:36:26.423Z,95.18
2022-11-29T11:38:55.994Z,94.93
2022-11-29T11:41:57.851Z,94.87
2022-11-29T11:44:51.237Z,94.88
2022-11-29T11:47:28.265Z,94.65
2022-11-29T11:50:07.865Z,94.46
2022-11-29T11:52:48.898Z,94.61
2022-11-29T11:55:40.379Z,94.78
2022-11-29T11:58:12.808Z,94.55
2022-11-29T12:01:04.076Z,94.38
2022-11-29T12:03:56.650Z,94.37
2022-11-29T12:06:39.293Z,94.36
2022-11-29T12:09:44.183Z,94.30
2022-11-29T12:12:17.990Z,94.59
2022-11-29T12:15:02.071Z,94.94
2022-11-29T12:17:34.265Z,94.98
2022-11-29T12:20:38.873Z,94.86
2022-11-29T12:23:21.674Z,95.14
2022-11-29T12:26:04.217Z,94.99
2022-11-29T12:28:33.563Z,95.20
2022-11-29T12:31:31.112Z,95.41
2022-11-29T12:34:22.383Z,95.63
2022-11-29T12:36:58.972Z,96.09
2022-11-29T12:39:40.674Z,95.97
2022-11-29T12:42:12.763Z,95.88
2022-11-29T12:44:51.913Z,96.32
2022-11-29T12:47:45.182Z,96.31
2022-11-29T12:50:18.882Z,96.19
2022-11-29T12:53:06.565Z,96.33
2022-11-29T12:55:48.325Z,96.35
2022-11-29T12:58:42.753Z,96.26
2022-11-29T13:01:31.615Z,96.30
2022-11-29T13:04:00.986Z,96.57
2022-11-29T13:06:39.616Z,96.62
2022-11-29T13:09:31.435Z,96.79
2022-11-29T13:12:23.790Z,97.09
2022-11-29T13:14:56.462Z,97.08
2022-11-29T13:17:47.957Z,96.95
2022-11-29T13:20:17.241Z,96.80
2022-11-29T13:22:58.616Z,96.55
2022-11-29T13:25:30.163Z,96.71
2022-11-29T13:28:01.681Z,96.62
2022-11-29T13:30:28.089Z,96.99
2022-11-29T13:33:17.273Z,96.79
2022-11-29T13:35:54.480Z,97.04
2022-11-29T13:39:04.026Z,97.23
2022-11-29T13:41:34.572Z,97.42
2022-11-29T13:44:06.114Z,97.47
2022-11-29T13:46:46.726Z,97.70
2022-11-29T13:49:40.356Z,97.49
2022-11-29T13:52:06.884Z,97.41
2022-11-29T13:54:33.578Z,97.69
2022-11-29T13:57:08.510Z,97.88
2022-11-29T13:59:36.799Z,98.41
2022-11-29T14:02:04.341Z,98.87
2022-11-29T14:04:39.260Z,98.40
2022-11-29T14:07:05.473Z,98.56
2022-11-29T14:09:37.277Z,98.75
2022-11-29T14:12:23.868Z,98.88
2022-11-29T14:15:20.733Z,98.74
2022-11-29T14:17:50.525Z,98.71
2022-11-29T14:20:22.644Z,98.72
2022-11-29T14:23:04.392Z,98.54
2022-11-29T14:25:54.970Z,98.48
2022-11-29T14:28:21.252Z,98.61
2022-11-29T14:30:53.276Z,98.42
2022-11-29T14:33:35.261Z,98.40
2022-11-29T14:36:31.624Z,98.27
2022-11-29T14:39:13.024Z,98.75
2022-11-29T14:41:53.154Z,98.74
2022-11-29T14:44:28.185Z,98.61
2022-11-29T14:47:18.641Z,98.72
2022-11-29T14:49:45.286Z,98.93
2022-11-29T14:52:14.307Z,98.98
2022-11-29T14:54:58.484Z,99.04
2022-11-29T14:57:46.920Z,98.92
2022-11-29T15:00:16.477Z,98.96
2022-11-29T15:03:08.705Z,99.06
2022-11-29T15:05:46.141Z,99.34
2022-11-29T15:08:30.246Z,99.22
2022-11-29T15:11:17.721Z,99.39
2022-11-29T15:14:03.354Z,99.24
2022-11-29T15:16:43.051Z,99.34
2022-11-29T15:19:21.158Z,99.28
2022-11-29T15:21:55.982Z,99.38
2022-11-29T15:24:26.755Z,99.69
2022-11-29T15:26:59.400Z,99.75
2022-11-29T15:29:27.689Z,99.67
2022-11-29T15:31:57.343Z,99.67
2022-11-29T15:34:47.012Z,99.92
2022-11-29T15:37:35.490Z,100.00
2022-11-29T15:40:20.138Z,100.00
2022-11-29T15:42:54.978Z,100.00
2022-11-29T15:45:25.812Z,100.00
2022-11-29T15:47:52.370Z,100.00
2022-11-29T15:50:27.770Z,100.00
2022-11-29T15:53:00.929Z,100.00
2022-11-29T15:55:27.911Z,100.00
2022-11-29T15:57:56.537Z,100.00
2022-11-29T16:00:23.190Z,100.00
2022-11-29T16:02:56.494Z,100.00
2022-11-29T16:05:28.248Z,100.00
2022-11-29T16:08:01.856Z,100.00
2022-11-29T16:10:44.080Z,100.00
2022-11-29T16:13:25.663Z,100.00
2022-11-29T16:16:04.429Z,100.00
2022-11-29T16:18:30.828Z,100.00
2022-11-29T16:21:01.839Z,100.00
2022-11-29T16:23:41.385Z,100.00
2022-11-29T16:26:13.765Z,100.00
2022-11-29T16:28:46.537Z,100.00
2022-11-29T16:31:21.435Z,100.00
2022-11-29T16:33:50.926Z,100.00
2022-11-29T16:36:22.161Z,100.00
2022-11-29T16:38:54.193Z,100.00
2022-11-29T16:41:22.798Z,100.00
2022-11-29T16:43:53.179Z,100.00
2022-11-29T16:46:22.557Z,100.00
2022-11-29T16:48:49.882Z,100.00
2022-11-29T16:51:24.454Z,100.00
2022-11-29T16:53:52.215Z,100.00
2022-11-29T16:56:27.608Z,100.00
2022-11-29T16:59:16.966Z,100.00
2022-11-29T17:01:46.820Z,100.00
2022-11-29T17:04:13.171Z,100.00
2022-11-29T17:06:50.717Z,100.00
2022-11-29T17:09:24.791Z,100.00
2022-11-29T17:11:51.069Z,100.00
2022-11-29T17:14:17.379Z,100.00
2022-11-29T17:16:43.714Z,100.00
2022-11-29T17:19:12.210Z,100.00
2022-11-29T17:21:38.507Z,100.00
2022-11-29T17:24:05.235Z,100.00
2022-11-29T17:26:31.539Z,100.00
2022-11-29T17:28:57.916Z,100.00
2022-11-29T17:31:24.587Z,100.00
2022-11-29T17:33:51.139Z,100.00
2022-11-29T17:36:19.866Z,100.00
2022-11-29T17:38:47.139Z,100.00
2022-11-29T17:41:16.256Z,100.00
2022-11-29T17:43:42.674Z,100.00
2022-11-29T17:46:24.147Z,100.00
2022-11-29T17:48:51.016Z,100.00
2022-11-29T17:51:49.865Z,100.00
2022-11-29T17:54:07.519Z,100.00
2022-11-29T17:56:34.382Z,100.00
2022-11-29T17:59:02.679Z,100.00
2022-11-29T18:01:32.174Z,100.00
2022-11-29T18:04:01.087Z,100.00
2022-11-29T18:06:30.007Z,100.00
2022-11-29T18:08:58.921Z,100.00
2022-11-29T18:11:26.776Z,100.00
2022-11-29T18:13:54.486Z,100.00
2022-11-29T18:16:26.629Z,100.00
2022-11-29T18:19:04.421Z,100.00
2022-11-29T18:21:31.314Z,100.00
2022-11-29T18:24:01.702Z,100.00
2022-11-29T18:26:29.119Z,100.00
2022-11-29T18:28:55.652Z,100.00
2022-11-29T18:31:28.374Z,100.00
2022-11-29T18:33:57.285Z,100.00
2022-11-29T18:36:27.310Z,100.00
2022-11-29T18:38:58.940Z,100.00
2022-11-29T18:41:26.512Z,100.00
2022-11-29T18:44:01.377Z,100.00
2022-11-29T18:46:28.136Z,100.00
2022-11-29T18:48:54.474Z,100.00
2022-11-29T18:51:20.789Z,100.00
2022-11-29T18:53:47.266Z,100.00
2022-11-29T18:56:16.522Z,100.00
2022-11-29T18:58:56.845Z,100.00
2022-11-29T19:01:27.578Z,100.00
2022-11-29T19:03:55.369Z,100.00
2022-11-29T19:06:28.097Z,100.00
2022-11-29T19:08:54.740Z,100.00
2022-11-29T19:11:23.529Z,100.00
2022-11-29T19:14:01.541Z,100.00
2022-11-29T19:16:29.530Z,100.00
2022-11-29T19:18:57.743Z,100.00
2022-11-29T19:21:26.143Z,100.00
2022-11-29T19:23:54.833Z,100.00
2022-11-29T19:26:22.093Z,100.00
2022-11-29T19:28:49.171Z,100.00
2022-11-29T19:31:18.145Z,100.00
2022-11-29T19:33:45.312Z,100.00
2022-11-29T19:36:19.272Z,100.00
2022-11-29T19:38:51.662Z,100.00
2022-11-29T19:41:22.625Z,100.00
2022-11-29T19:43:49.617Z,100.00
2022-11-29T19:46:21.992Z,100.00
2022-11-29T19:48:48.659Z,100.00
2022-11-29T19:51:16.053Z,100.00
2022-11-29T19:53:42.432Z,100.00
2022-11-29T19:56:11.797Z,100.00
2022-11-29T19:58:38.388Z,100.00
2022-11-29T20:01:09.524Z,100.00
2022-11-29T20:03:36.193Z,100.00
2022-11-29T20:06:03.260Z,100.00
2022-11-29T20:08:30.122Z,100.00
2022-11-29T20:10:56.609Z,100.00
2022-11-29T20:13:22.937Z,100.00
2022-11-29T20:15:49.355Z,100.00
2022-11-29T20:18:15.949Z,100.00
2022-11-29T20:20:42.270Z,100.00
2022-11-29T20:23:08.600Z,100.00
2022-11-29T20:25:34.953Z,100.00
2022-11-29T20:28:01.473Z,100.00
2022-11-29T20:30:27.800Z,100.00
2022-11-29T20:32:54.262Z,100.00
2022-11-29T20:35:20.788Z,100.00
2022-11-29T20:38:08.926Z,100.00
2022-11-29T20:41:03.004Z,100.00
2022-11-29T20:43:45.035Z,100.00
2022-11-29T20:46:11.688Z,100.00
2022-11-29T20:48:38.254Z,100.00
2022-11-29T20:51:05.223Z,100.00
2022-11-29T20:53:31.500Z,100.00
2022-11-29T20:55:58.224Z,100.00
2022-11-29T20:58:24.588Z,100.00
2022-11-29T21:00:50.939Z,100.00
2022-11-29T21:03:18.488Z,100.00
2022-11-29T21:05:45.726Z,100.00
2022-11-29T21:08:13.410Z,100.00
2022-11-29T21:10:39.809Z,100.00
2022-11-29T21:13:07.465Z,100.00
2022-11-29T21:15:34.254Z,100.00
2022-11-29T21:18:00.982Z,100.00
2022-11-29T21:20:27.575Z,100.00
2022-11-29T21:23:03.297Z,100.00
2022-11-29T21:25:29.679Z,100.00
2022-11-29T21:27:56.684Z,100.00
2022-11-29T21:30:24.599Z,100.00
2022-11-29T21:32:51.467Z,100.00
2022-11-29T21:35:18.055Z,100.00
2022-11-29T21:37:45.124Z,100.00
2022-11-29T21:40:13.950Z,100.00
2022-11-29T21:42:40.390Z,100.00
2022-11-29T21:45:11.807Z,100.00
2022-11-29T21:47:41.911Z,100.00
2022-11-29T21:50:08.678Z,100.00
2022-11-29T21:52:35.038Z,100.00
2022-11-29T21:55:01.608Z,100.00
2022-11-29T21:57:27.932Z,100.00
2022-11-29T21:59:54.268Z,100.00
2022-11-29T22:02:20.736Z,100.00
2022-11-29T22:04:47.319Z,100.00
2022-11-29T22:07:13.724Z,100.00
2022-11-29T22:09:40.116Z,100.00
2022-11-29T22:12:31.829Z,100.00
2022-11-29T22:14:52.992Z,100.00
2022-11-29T22:17:19.355Z,100.00
2022-11-29T22:19:45.680Z,100.00
2022-11-29T22:22:12.011Z,100.00
2022-11-29T22:24:38.353Z,100.00
2022-11-29T22:27:04.967Z,100.00
2022-11-29T22:29:31.306Z,100.00
2022-11-29T22:31:57.676Z,100.00
2022-11-29T22:34:24.122Z,99.78
2022-11-29T22:36:50.765Z,99.15
2022-11-29T22:39:17.083Z,99.01
2022-11-29T22:41:47.033Z,99.34
2022-11-29T22:44:17.082Z,99.56
2022-11-29T22:46:43.523Z,99.12
2022-11-29T22:49:09.881Z,99.12
2022-11-29T22:51:37.871Z,99.11
2022-11-29T22:54:07.054Z,98.20
2022-11-29T22:56:36.229Z,96.76
2022-11-29T22:59:03.851Z,96.36
2022-11-29T23:01:32.543Z,96.55
2022-11-29T23:04:01.317Z,96.62
2022-11-29T23:06:29.862Z,96.63
2022-11-29T23:09:02.812Z,95.90
2022-11-29T23:11:30.111Z,95.66
2022-11-29T23:13:56.573Z,95.97
2022-11-29T23:16:25.802Z,96.22
2022-11-29T23:18:53.391Z,96.59
2022-11-29T23:21:25.838Z,96.79
2022-11-29T23:23:56.306Z,97.04
2022-11-29T23:26:30.936Z,97.03
2022-11-29T23:28:58.268Z,96.94
2022-11-29T23:31:24.991Z,97.25
2022-11-29T23:33:51.446Z,97.32
2022-11-29T23:36:17.834Z,97.64
2022-11-29T23:38:44.260Z,97.12
2022-11-29T23:41:11.582Z,97.28
2022-11-29T23:43:39.824Z,97.02
2022-11-29T23:46:10.148Z,96.53
2022-11-29T23:48:36.482Z,96.50
2022-11-29T23:51:02.948Z,96.87
2022-11-29T23:53:29.614Z,96.85
2022-11-29T23:56:08.104Z,96.87
2022-11-29T23:58:35.595Z,96.96
